createdAt,value
2023-01-10T00:01:51.875Z,93.1
2023-01-10T00:04:51.903Z,93.1
2023-01-10T00:07:51.867Z,93
2023-01-10T00:10:51.856Z,92.8
2023-01-10T00:13:51.861Z,92.8
2023-01-10T00:16:51.881Z,92.8
2023-01-10T00:19:51.891Z,92.8
2023-01-10T00:22:51.879Z,92.8
2023-01-10T00:25:51.869Z,92.8
2023-01-10T00:28:51.868Z,92.7
2023-01-10T00:31:51.872Z,92.7
2023-01-10T00:34:51.873Z,92.7
2023-01-10T00:37:51.899Z,92.4
2023-01-10T00:40:51.883Z,92.5
2023-01-10T00:43:51.876Z,92.2
2023-01-10T00:46:51.876Z,92.2
2023-01-10T00:49:51.878Z,91.9
2023-01-10T00:52:51.884Z,92
2023-01-10T00:55:51.903Z,91.9
2023-01-10T00:58:51.877Z,91.8
2023-01-10T01:01:52.015Z,91.8
2023-01-10T01:04:51.881Z,91.7
2023-01-10T01:07:51.881Z,91.6
2023-01-10T01:10:51.884Z,91.5
2023-01-10T01:13:51.905Z,91.6
2023-01-10T01:16:51.884Z,91.6
2023-01-10T01:19:51.896Z,91.6
2023-01-10T01:22:51.885Z,91.6
2023-01-10T01:25:51.898Z,91.5
2023-01-10T01:28:51.895Z,91.6
2023-01-10T01:31:51.913Z,91.6
2023-01-10T01:34:51.895Z,91.5
2023-01-10T01:37:51.922Z,91.5
2023-01-10T01:40:51.890Z,91.5
2023-01-10T01:43:51.893Z,91.5
2023-01-10T01:46:51.898Z,91.5
2023-01-10T01:49:51.920Z,91.5
2023-01-10T01:52:51.898Z,91.4
2023-01-10T01:55:51.904Z,91.4
2023-01-10T01:58:51.912Z,91.4
2023-01-10T02:01:51.938Z,91.4
2023-01-10T02:04:51.911Z,91.3
2023-01-10T02:07:51.932Z,91.3
2023-01-10T02:10:51.911Z,91.3
2023-01-10T02:13:51.917Z,91.2
2023-01-10T02:16:51.908Z,91.1
2023-01-10T02:19:51.912Z,91.1
2023-01-10T02:22:51.916Z,91.1
2023-01-10T02:25:51.938Z,91.1
2023-01-10T02:28:51.917Z,91
2023-01-10T02:31:51.917Z,91.1
2023-01-10T02:34:51.917Z,91.1
2023-01-10T02:37:51.921Z,91.1
2023-01-10T02:40:51.917Z,91.1
2023-01-10T02:43:51.942Z,91.1
2023-01-10T02:46:51.989Z,91.1
2023-01-10T02:49:51.927Z,91.1
2023-01-10T02:52:51.924Z,91.1
2023-01-10T02:55:51.932Z,91.1
2023-01-10T02:58:51.928Z,91.1
2023-01-10T03:01:51.969Z,91.4
2023-01-10T03:04:52.014Z,91.5
2023-01-10T03:07:51.933Z,91.7
2023-01-10T03:10:51.937Z,91.8
2023-01-10T03:13:51.936Z,91.9
2023-01-10T03:16:51.931Z,91.8
2023-01-10T03:19:51.964Z,91.9
2023-01-10T03:22:51.927Z,92.1
2023-01-10T03:25:51.926Z,92.2
2023-01-10T03:28:51.931Z,92.4
2023-01-10T03:31:51.939Z,92.4
2023-01-10T03:34:51.936Z,92.4
2023-01-10T03:37:51.963Z,92.7
2023-01-10T03:40:51.935Z,92.8
2023-01-10T03:43:51.944Z,92.7
2023-01-10T03:46:51.971Z,92.6
2023-01-10T03:49:51.944Z,92.6
2023-01-10T03:52:51.957Z,92.7
2023-01-10T03:55:51.974Z,92.6
2023-01-10T03:58:51.959Z,92.6
2023-01-10T04:01:52.015Z,92.6
2023-01-10T04:04:51.948Z,92.5
2023-01-10T04:07:51.957Z,92.5
2023-01-10T04:10:51.951Z,92.3
2023-01-10T04:13:51.982Z,92.4
2023-01-10T04:16:51.968Z,92.2
2023-01-10T04:19:51.959Z,92
2023-01-10T04:22:51.962Z,92
2023-01-10T04:25:51.960Z,92
2023-01-10T04:28:51.984Z,92
2023-01-10T04:31:52.102Z,91.9
2023-01-10T04:34:51.978Z,92
2023-01-10T04:37:51.968Z,92.1
2023-01-10T04:40:51.998Z,92.1
2023-01-10T04:43:51.969Z,92.3
2023-01-10T04:46:51.981Z,92.4
2023-01-10T04:49:51.999Z,92.5
2023-01-10T04:52:51.974Z,92.6
2023-01-10T04:55:51.971Z,92.7
2023-01-10T04:58:53.945Z,92.7
2023-01-10T05:01:52.101Z,93.1
2023-01-10T05:04:51.979Z,93.1
2023-01-10T05:07:52.001Z,93.1
2023-01-10T05:10:51.982Z,93
2023-01-10T05:13:51.994Z,93
2023-01-10T05:16:52.015Z,93
2023-01-10T05:19:51.981Z,92.9
2023-01-10T05:22:51.992Z,92.9
2023-01-10T05:25:52.019Z,93
2023-01-10T05:28:52.035Z,92.9
2023-01-10T05:31:52.051Z,92.8
2023-01-10T05:34:52.013Z,92.8
2023-01-10T05:37:51.998Z,92.7
2023-01-10T05:40:52.000Z,92.6
2023-01-10T05:43:52.030Z,92.5
2023-01-10T05:46:52.005Z,92.4
2023-01-10T05:49:52.004Z,92.3
2023-01-10T05:52:52.006Z,92.2
2023-01-10T05:55:52.009Z,92.2
2023-01-10T05:59:00.575Z,92.1
2023-01-10T06:01:52.061Z,92.1
2023-01-10T06:04:52.088Z,92.1
2023-01-10T06:07:52.016Z,92.1
2023-01-10T06:10:52.020Z,92.2
2023-01-10T06:13:52.015Z,92.4
2023-01-10T06:16:52.018Z,92.4
2023-01-10T06:19:52.085Z,92.4
2023-01-10T06:22:52.025Z,92.4
2023-01-10T06:25:52.028Z,92.4
2023-01-10T06:28:52.026Z,92.3
2023-01-10T06:31:52.029Z,92.3
2023-01-10T06:34:52.037Z,92.2
2023-01-10T06:37:52.061Z,92.2
2023-01-10T06:40:52.037Z,92
2023-01-10T06:43:52.041Z,91.9
2023-01-10T06:46:52.049Z,92
2023-01-10T06:49:52.041Z,92.1
2023-01-10T06:52:52.051Z,92.1
2023-01-10T06:55:52.082Z,92.2
2023-01-10T06:58:52.060Z,92.3
2023-01-10T07:01:52.224Z,92.5
2023-01-10T07:04:52.060Z,92.4
2023-01-10T07:07:52.061Z,92.4
2023-01-10T07:10:52.064Z,92.5
2023-01-10T07:13:52.092Z,92.7
2023-01-10T07:16:52.086Z,92.9
2023-01-10T07:19:52.073Z,93.2
2023-01-10T07:22:52.073Z,93.3
2023-01-10T07:25:52.083Z,93.4
2023-01-10T07:28:52.107Z,93.4
2023-01-10T07:31:52.100Z,93.4
2023-01-10T07:34:52.085Z,93.6
2023-01-10T07:37:52.108Z,93.6
2023-01-10T07:40:52.086Z,93.5
2023-01-10T07:43:52.091Z,93.3
2023-01-10T07:46:52.093Z,92.9
2023-01-10T07:49:52.121Z,92.7
2023-01-10T07:52:52.107Z,92.4
2023-01-10T07:55:52.112Z,92
2023-01-10T07:58:52.107Z,91.8
2023-01-10T08:01:52.113Z,91.3
2023-01-10T08:04:52.115Z,91.2
2023-01-10T08:07:52.140Z,90.7
2023-01-10T08:10:52.122Z,90.4
2023-01-10T08:13:52.120Z,90
2023-01-10T08:16:52.128Z,90
2023-01-10T08:19:52.125Z,89.8
2023-01-10T08:22:52.131Z,89.6
2023-01-10T08:25:52.172Z,89.6
2023-01-10T08:28:52.135Z,89.6
2023-01-10T08:31:52.147Z,89.5
2023-01-10T08:34:52.141Z,89.4
2023-01-10T08:37:52.144Z,88.9
2023-01-10T08:40:52.148Z,88.5
2023-01-10T08:43:52.172Z,87.8
2023-01-10T08:46:52.216Z,87.8
2023-01-10T08:49:52.158Z,87.8
2023-01-10T08:52:52.167Z,87.6
2023-01-10T08:55:52.159Z,87.6
2023-01-10T08:58:52.168Z,87.3
2023-01-10T09:01:52.216Z,86.9
2023-01-10T09:04:52.168Z,87.1
2023-01-10T09:07:52.173Z,86.9
2023-01-10T09:10:52.174Z,86.8
2023-01-10T09:13:52.176Z,86.8
2023-01-10T09:16:52.176Z,86.6
2023-01-10T09:19:52.325Z,86.7
2023-01-10T09:22:52.197Z,86.8
2023-01-10T09:25:52.185Z,86.7
2023-01-10T09:28:52.193Z,86.7
2023-01-10T09:31:52.194Z,86.6
2023-01-10T09:34:52.203Z,86.2
2023-01-10T09:37:52.220Z,86.3
2023-01-10T09:40:52.209Z,86.3
2023-01-10T09:43:52.205Z,85.6
2023-01-10T09:46:52.255Z,85.2
2023-01-10T09:49:52.229Z,84.8
2023-01-10T09:52:52.214Z,84.1
2023-01-10T09:55:52.239Z,84.2
2023-01-10T09:58:52.216Z,83.9
2023-01-10T10:01:52.219Z,83.6
2023-01-10T10:04:52.221Z,83.3
2023-01-10T10:07:52.226Z,83
2023-01-10T10:10:52.230Z,83
2023-01-10T10:13:52.251Z,83.2
2023-01-10T10:16:52.244Z,83.4
2023-01-10T10:19:52.239Z,83.5
2023-01-10T10:22:52.251Z,83.7
2023-01-10T10:25:52.245Z,83.7
2023-01-10T10:28:54.794Z,83.6
2023-01-10T10:31:52.312Z,83.8
2023-01-10T10:34:52.258Z,83.5
2023-01-10T10:37:52.261Z,83
2023-01-10T10:40:52.266Z,83.5
2023-01-10T10:43:52.268Z,83.5
2023-01-10T10:46:52.276Z,83.4
2023-01-10T10:49:52.311Z,83.6
2023-01-10T10:52:52.280Z,83
2023-01-10T10:55:52.281Z,82.8
2023-01-10T10:58:52.289Z,83
2023-01-10T11:01:52.496Z,83
2023-01-10T11:04:52.321Z,82.5
2023-01-10T11:07:52.320Z,82.3
2023-01-10T11:10:52.306Z,82.3
2023-01-10T11:13:52.309Z,82.4
2023-01-10T11:16:52.308Z,82.3
2023-01-10T11:19:52.312Z,81.8
2023-01-10T11:22:52.314Z,82
2023-01-10T11:25:52.342Z,82
2023-01-10T11:28:52.324Z,82
2023-01-10T11:31:52.379Z,81.8
2023-01-10T11:34:52.333Z,81.3
2023-01-10T11:37:52.344Z,81.5
2023-01-10T11:40:52.345Z,81.6
2023-01-10T11:43:52.372Z,81.7
2023-01-10T11:46:52.360Z,81.8
2023-01-10T11:49:52.362Z,81.3
2023-01-10T11:52:52.372Z,81.5
2023-01-10T11:55:52.438Z,81.3
2023-01-10T11:58:52.377Z,81.1
2023-01-10T12:01:52.476Z,81.6
2023-01-10T12:04:52.488Z,81.2
2023-01-10T12:07:52.394Z,81.4
2023-01-10T12:10:52.399Z,81.4
2023-01-10T12:13:52.402Z,81.5
2023-01-10T12:16:52.442Z,81.6
2023-01-10T12:19:52.450Z,81.8
2023-01-10T12:22:52.422Z,82
2023-01-10T12:25:57.472Z,82.1
2023-01-10T12:28:52.434Z,82.2
2023-01-10T12:31:52.439Z,82.2
2023-01-10T12:34:52.448Z,81.8
2023-01-10T12:37:52.464Z,81.7
2023-01-10T12:40:52.457Z,81.3
2023-01-10T12:43:52.455Z,80.9
2023-01-10T12:47:06.230Z,80.3
2023-01-10T12:49:52.460Z,80.2
2023-01-10T12:52:52.483Z,80
2023-01-10T12:55:52.497Z,79.5
2023-01-10T12:58:52.479Z,79.9
2023-01-10T13:01:52.616Z,80.3
2023-01-10T13:04:52.490Z,80.4
2023-01-10T13:07:52.500Z,80.6
2023-01-10T13:10:52.502Z,80.7
2023-01-10T13:13:52.534Z,81
2023-01-10T13:16:52.609Z,81.2
2023-01-10T13:19:52.522Z,81.2
2023-01-10T13:22:52.530Z,81.5
2023-01-10T13:25:52.528Z,81.3
2023-01-10T13:28:52.532Z,81.5
2023-01-10T13:31:52.580Z,81
2023-01-10T13:34:52.550Z,81.4
2023-01-10T13:37:52.566Z,81
2023-01-10T13:40:52.556Z,81.3
2023-01-10T13:43:52.592Z,81.6
2023-01-10T13:46:52.571Z,81.4
2023-01-10T13:49:52.603Z,81.1
2023-01-10T13:52:52.576Z,80.5
2023-01-10T13:55:52.585Z,80.4
2023-01-10T13:58:52.600Z,80.1
2023-01-10T14:01:52.709Z,79.9
2023-01-10T14:04:52.664Z,80.1
2023-01-10T14:07:52.651Z,80.5
2023-01-10T14:10:52.618Z,80.3
2023-01-10T14:13:52.631Z,80.7
2023-01-10T14:16:52.635Z,81
2023-01-10T14:19:52.646Z,81.1
2023-01-10T14:22:52.651Z,81
2023-01-10T14:25:52.697Z,81
2023-01-10T14:28:52.670Z,80.8
2023-01-10T14:31:52.671Z,80.8
2023-01-10T14:34:52.671Z,80.7
2023-01-10T14:37:52.678Z,80.8
2023-01-10T14:40:52.748Z,80.8
2023-01-10T14:43:52.730Z,80.6
2023-01-10T14:46:52.706Z,80.7
2023-01-10T14:49:52.711Z,80.8
2023-01-10T14:52:52.719Z,81
2023-01-10T14:55:52.725Z,81.1
2023-01-10T14:58:52.733Z,81.1
2023-01-10T15:01:52.795Z,81
2023-01-10T15:04:52.821Z,81.1
2023-01-10T15:07:52.756Z,81.3
2023-01-10T15:10:52.760Z,81.5
2023-01-10T15:13:52.764Z,81.8
2023-01-10T15:16:52.771Z,82
2023-01-10T15:19:52.815Z,82.1
2023-01-10T15:22:52.793Z,82
2023-01-10T15:25:52.800Z,82.2
2023-01-10T15:28:52.803Z,82.5
2023-01-10T15:31:52.826Z,82.6
2023-01-10T15:34:52.844Z,82.6
2023-01-10T15:37:52.860Z,82.5
2023-01-10T15:40:52.835Z,82.4
2023-01-10T15:43:52.843Z,82.4
2023-01-10T15:46:52.911Z,82.4
2023-01-10T15:49:52.872Z,82.3
2023-01-10T15:52:52.858Z,82.3
2023-01-10T15:55:52.895Z,82.3
2023-01-10T15:58:52.882Z,82.2
2023-01-10T16:01:52.981Z,82.2
2023-01-10T16:04:52.889Z,82.3
2023-01-10T16:07:52.893Z,82.3
2023-01-10T16:10:52.899Z,82.1
2023-01-10T16:13:52.922Z,82.1
2023-01-10T16:16:52.912Z,82.3
2023-01-10T16:19:52.920Z,82.6
2023-01-10T16:22:52.934Z,82.9
2023-01-10T16:25:52.931Z,83.3
2023-01-10T16:28:52.927Z,83.4
2023-01-10T16:31:53.014Z,83.7
2023-01-10T16:34:52.937Z,83.9
2023-01-10T16:37:52.949Z,84
2023-01-10T16:40:52.949Z,84.1
2023-01-10T16:43:52.948Z,84.2
2023-01-10T16:46:52.953Z,84.2
2023-01-10T16:49:52.980Z,84.3
2023-01-10T16:52:52.963Z,84.3
2023-01-10T16:55:52.987Z,84.3
2023-01-10T16:58:52.970Z,84.3
2023-01-10T17:01:53.064Z,84.3
2023-01-10T17:04:52.979Z,84.3
2023-01-10T17:07:53.028Z,84.3
2023-01-10T17:10:52.981Z,84.3
2023-01-10T17:13:52.974Z,84.2
2023-01-10T17:16:53.066Z,84.3
2023-01-10T17:19:52.977Z,84.2
2023-01-10T17:22:52.982Z,84.2
2023-01-10T17:25:53.004Z,84.2
2023-01-10T17:28:52.989Z,84.2
2023-01-10T17:31:53.103Z,84.2
2023-01-10T17:34:53.005Z,84.1
2023-01-10T17:37:53.007Z,83.9
2023-01-10T17:40:53.018Z,83.8
2023-01-10T17:43:53.049Z,83.6
2023-01-10T17:46:53.037Z,83.2
2023-01-10T17:49:53.043Z,82.9
2023-01-10T17:52:53.053Z,82.7
2023-01-10T17:55:53.064Z,82.5
2023-01-10T17:58:53.119Z,82.5
2023-01-10T18:01:53.222Z,82.6
2023-01-10T18:04:53.091Z,82.7
2023-01-10T18:07:53.102Z,82.8
2023-01-10T18:10:53.106Z,82.9
2023-01-10T18:13:53.114Z,82.9
2023-01-10T18:16:53.178Z,83
2023-01-10T18:19:53.172Z,82.9
2023-01-10T18:22:53.139Z,82.7
2023-01-10T18:25:53.150Z,82.6
2023-01-10T18:28:53.152Z,82.4
2023-01-10T18:31:53.171Z,82.1
2023-01-10T18:34:53.185Z,82
2023-01-10T18:37:53.204Z,81.7
2023-01-10T18:40:53.182Z,81.5
2023-01-10T18:43:53.193Z,81.2
2023-01-10T18:46:53.200Z,81.1
2023-01-10T18:49:53.209Z,80.9
2023-01-10T18:52:53.230Z,80.7
2023-01-10T18:55:53.263Z,80.6
2023-01-10T18:58:53.252Z,80.3
2023-01-10T19:01:53.306Z,80.1
2023-01-10T19:04:53.263Z,80
2023-01-10T19:07:53.268Z,79.8
2023-01-10T19:11:12.700Z,79.5
2023-01-10T19:13:53.318Z,79.6
2023-01-10T19:16:53.293Z,79.6
2023-01-10T19:19:53.306Z,79.4
2023-01-10T19:22:53.311Z,79.2
2023-01-10T19:25:53.317Z,79.1
2023-01-10T19:28:53.340Z,79
2023-01-10T19:31:53.445Z,79
2023-01-10T19:34:53.333Z,78.9
2023-01-10T19:37:53.380Z,78.8
2023-01-10T19:40:53.373Z,78.6
2023-01-10T19:43:53.363Z,78.2
2023-01-10T19:46:53.368Z,78.1
2023-01-10T19:49:53.401Z,78.1
2023-01-10T19:52:53.385Z,78
2023-01-10T19:55:53.396Z,77.8
2023-01-10T19:58:53.397Z,77.4
2023-01-10T20:01:53.449Z,77.3
2023-01-10T20:04:53.419Z,77.3
2023-01-10T20:07:53.443Z,77.3
2023-01-10T20:10:53.432Z,77.3
2023-01-10T20:13:53.450Z,77.4
2023-01-10T20:16:53.470Z,77.4
2023-01-10T20:19:53.454Z,77.3
2023-01-10T20:22:53.464Z,77.2
2023-01-10T20:25:54.741Z,77.2
2023-01-10T20:28:53.500Z,77.1
2023-01-10T20:31:53.496Z,77.1
2023-01-10T20:34:53.504Z,76.9
2023-01-10T20:37:53.521Z,77.1
2023-01-10T20:40:53.532Z,77.2
2023-01-10T20:43:53.576Z,77.3
2023-01-10T20:46:53.583Z,77.3
2023-01-10T20:49:53.569Z,77.1
2023-01-10T20:52:53.759Z,77
2023-01-10T20:55:59.868Z,76.8
2023-01-10T20:58:53.607Z,76.6
2023-01-10T21:01:53.724Z,76.7
2023-01-10T21:04:53.628Z,77
2023-01-10T21:07:53.646Z,77.3
2023-01-10T21:10:53.652Z,78
2023-01-10T21:13:53.676Z,78.6
2023-01-10T21:16:53.687Z,79.4
2023-01-10T21:19:53.722Z,80.3
2023-01-10T21:22:54.725Z,81
2023-01-10T21:25:53.713Z,81.9
2023-01-10T21:28:53.725Z,82.8
2023-01-10T21:31:53.733Z,83.3
2023-01-10T21:34:53.777Z,84
2023-01-10T21:37:53.779Z,84.4
2023-01-10T21:40:53.768Z,85
2023-01-10T21:43:53.787Z,85.3
2023-01-10T21:46:53.922Z,85.9
2023-01-10T21:49:53.825Z,86.8
2023-01-10T21:52:53.824Z,87
2023-01-10T21:55:53.858Z,87.3
2023-01-10T21:58:53.834Z,87.9
2023-01-10T22:01:53.843Z,88.1
2023-01-10T22:04:54.012Z,88.5
2023-01-10T22:07:53.855Z,88.7
2023-01-10T22:10:53.873Z,88.9
2023-01-10T22:13:53.901Z,88.9
2023-01-10T22:16:53.877Z,88.8
2023-01-10T22:19:53.881Z,88.6
2023-01-10T22:22:53.881Z,88.5
2023-01-10T22:25:53.889Z,88.1
2023-01-10T22:28:53.897Z,87.8
2023-01-10T22:31:53.970Z,87.8
2023-01-10T22:34:53.909Z,87.9
2023-01-10T22:37:53.919Z,87.5
2023-01-10T22:40:53.919Z,87.5
2023-01-10T22:43:53.928Z,87.5
2023-01-10T22:46:53.930Z,87.3
2023-01-10T22:49:53.957Z,87.2
2023-01-10T22:52:53.942Z,87.4
2023-01-10T22:55:53.940Z,87.6
2023-01-10T22:58:53.949Z,87.9
2023-01-10T23:01:53.949Z,88.2
2023-01-10T23:04:53.965Z,88.7
2023-01-10T23:07:53.994Z,88.7
2023-01-10T23:10:54.022Z,88.9
2023-01-10T23:13:53.977Z,89.2
2023-01-10T23:16:54.042Z,89.4
2023-01-10T23:19:53.985Z,89.6
2023-01-10T23:22:53.998Z,89.7
2023-01-10T23:25:54.019Z,89.8
2023-01-10T23:28:54.003Z,90
2023-01-10T23:31:54.100Z,90
2023-01-10T23:34:54.036Z,90.1
2023-01-10T23:37:54.043Z,90
2023-01-10T23:40:54.037Z,90
2023-01-10T23:43:54.068Z,90
2023-01-10T23:46:54.043Z,90.1
2023-01-10T23:49:54.042Z,90.2
2023-01-10T23:52:54.048Z,90.1
2023-01-10T23:55:54.051Z,89.9
2023-01-10T23:58:54.042Z,90
